createdAt,value
2023-03-29T00:01:12.375Z,101637.34
2023-03-29T00:04:02.506Z,101631.16
2023-03-29T00:06:33.144Z,101631.34
2023-03-29T00:09:01.818Z,101616.66
2023-03-29T00:11:29.798Z,101623.28
2023-03-29T00:13:57.597Z,101622.47
2023-03-29T00:16:25.544Z,101615.63
2023-03-29T00:18:53.424Z,101617.28
2023-03-29T00:21:21.202Z,101612.94
2023-03-29T00:23:50.521Z,101604.06
2023-03-29T00:26:18.273Z,101594.19
2023-03-29T00:28:46.044Z,101600.38
2023-03-29T00:31:15.516Z,101595.22
2023-03-29T00:33:44.175Z,101593.34
2023-03-29T00:36:13.493Z,101589.66
2023-03-29T00:38:41.628Z,101586.97
2023-03-29T00:41:11.648Z,101590.47
2023-03-29T00:44:00.785Z,101596.66
2023-03-29T00:46:30.608Z,101588.38
2023-03-29T00:49:01.960Z,101582.19
2023-03-29T00:51:34.228Z,101586.13
2023-03-29T00:54:04.578Z,101591.50
2023-03-29T00:56:37.451Z,101593.34
2023-03-29T00:59:08.012Z,101586.97
2023-03-29T01:01:42.159Z,101578.91
2023-03-29T01:04:18.375Z,101583.47
2023-03-29T01:06:49.593Z,101574.34
2023-03-29T01:09:21.057Z,101578.28
2023-03-29T01:11:55.350Z,101571.66
2023-03-29T01:14:30.931Z,101576.63
2023-03-29T01:16:59.456Z,101572.47
2023-03-29T01:19:33.962Z,101565.47
2023-03-29T01:22:13.509Z,101575.34
2023-03-29T01:24:56.600Z,101564.63
2023-03-29T01:27:40.315Z,101557.63
2023-03-29T01:30:14.170Z,101558.44
2023-03-29T01:32:48.822Z,101558.63
2023-03-29T01:35:22.224Z,101547.91
2023-03-29T01:37:57.152Z,101541.72
2023-03-29T01:40:28.128Z,101546.88
2023-03-29T01:43:05.533Z,101539.88
2023-03-29T01:45:37.830Z,101536.38
2023-03-29T01:48:11.999Z,101521.94
2023-03-29T01:50:46.129Z,101522.97
2023-03-29T01:53:20.128Z,101513.88
2023-03-29T01:55:52.845Z,101518.22
2023-03-29T01:58:24.874Z,101513.88
2023-03-29T02:00:55.336Z,101505.03
2023-03-29T02:03:26.655Z,101501.50
2023-03-29T02:05:56.172Z,101498.00
2023-03-29T02:08:24.267Z,101495.50
2023-03-29T02:10:52.840Z,101495.50
2023-03-29T02:13:22.115Z,101492.63
2023-03-29T02:15:49.937Z,101498.00
2023-03-29T02:18:19.864Z,101496.16
2023-03-29T02:20:50.059Z,101489.97
2023-03-29T02:23:23.471Z,101483.78
2023-03-29T02:25:53.552Z,101490.97
2023-03-29T02:28:24.422Z,101477.56
2023-03-29T02:30:57.622Z,101477.38
2023-03-29T02:33:31.180Z,101471.00
2023-03-29T02:36:04.383Z,101466.66
2023-03-29T02:38:33.251Z,101464.19
2023-03-29T02:41:02.469Z,101454.88
2023-03-29T02:43:33.782Z,101463.78
2023-03-29T02:46:02.575Z,101461.28
2023-03-29T02:48:31.977Z,101458.81
2023-03-29T02:51:04.459Z,101458.63
2023-03-29T02:53:38.941Z,101452.22
2023-03-29T02:56:07.760Z,101450.56
2023-03-29T02:58:36.910Z,101446.25
2023-03-29T03:01:06.845Z,101454.09
2023-03-29T03:03:35.848Z,101455.75
2023-03-29T03:06:03.749Z,101452.22
2023-03-29T03:08:32.188Z,101449.53
2023-03-29T03:11:00.249Z,101440.88
2023-03-29T03:13:28.110Z,101447.06
2023-03-29T03:15:57.334Z,101437.56
2023-03-29T03:18:25.106Z,101441.25
2023-03-29T03:20:56.917Z,101431.56
2023-03-29T03:23:25.066Z,101442.94
2023-03-29T03:25:53.696Z,101435.72
2023-03-29T03:28:22.096Z,101427.22
2023-03-29T03:30:49.977Z,101423.72
2023-03-29T03:33:19.411Z,101427.03
2023-03-29T03:35:47.976Z,101433.22
2023-03-29T03:38:16.673Z,101435.06
2023-03-29T03:40:44.464Z,101436.09
2023-03-29T03:43:12.666Z,101430.75
2023-03-29T03:45:40.442Z,101419.16
2023-03-29T03:48:08.722Z,101426.22
2023-03-29T03:50:38.326Z,101428.06
2023-03-29T03:53:06.091Z,101425.38
2023-03-29T03:55:34.569Z,101427.88
2023-03-29T03:58:02.338Z,101435.91
2023-03-29T04:00:30.087Z,101426.41
2023-03-29T04:02:57.915Z,101435.28
2023-03-29T04:05:25.803Z,101428.25
2023-03-29T04:07:56.131Z,101420.22
2023-03-29T04:10:23.873Z,101417.53
2023-03-29T04:12:51.622Z,101420.03
2023-03-29T04:15:20.334Z,101420.22
2023-03-29T04:17:48.182Z,101404.47
2023-03-29T04:20:16.663Z,101412.19
2023-03-29T04:22:44.424Z,101418.16
2023-03-29T04:25:13.601Z,101409.50
2023-03-29T04:27:41.668Z,101414.84
2023-03-29T04:30:11.004Z,101408.66
2023-03-29T04:32:39.053Z,101403.31
2023-03-29T04:35:08.019Z,101402.69
2023-03-29T04:37:35.823Z,101408.47
2023-03-29T04:40:09.556Z,101408.66
2023-03-29T04:42:39.009Z,101399.59
2023-03-29T04:45:08.048Z,101407.63
2023-03-29T04:47:36.606Z,101405.97
2023-03-29T04:50:05.006Z,101414.03
2023-03-29T04:52:33.394Z,101407.84
2023-03-29T04:55:01.495Z,101399.78
2023-03-29T04:57:29.837Z,101395.47
2023-03-29T04:59:58.983Z,101392.59
2023-03-29T05:02:27.133Z,101394.25
2023-03-29T05:04:54.995Z,101397.13
2023-03-29T05:07:22.991Z,101388.88
2023-03-29T05:09:50.736Z,101384.34
2023-03-29T05:12:18.496Z,101384.34
2023-03-29T05:14:46.773Z,101386.81
2023-03-29T05:17:15.842Z,101386.00
2023-03-29T05:19:44.518Z,101383.13
2023-03-29T05:22:12.324Z,101385.81
2023-03-29T05:24:40.099Z,101382.28
2023-03-29T05:27:07.855Z,101384.34
2023-03-29T05:29:35.615Z,101383.13
2023-03-29T05:32:03.406Z,101392.00
2023-03-29T05:34:32.598Z,101391.16
2023-03-29T05:37:01.561Z,101396.97
2023-03-29T05:39:29.445Z,101400.84
2023-03-29T05:41:57.173Z,101408.69
2023-03-29T05:44:24.930Z,101410.56
2023-03-29T05:46:53.116Z,101410.56
2023-03-29T05:49:21.536Z,101413.44
2023-03-29T05:51:52.060Z,101407.25
2023-03-29T05:54:19.863Z,101414.06
2023-03-29T05:56:47.689Z,101414.06
2023-03-29T05:59:15.506Z,101407.88
2023-03-29T06:01:45.386Z,101406.22
2023-03-29T06:04:13.448Z,101406.22
2023-03-29T06:06:41.676Z,101408.69
2023-03-29T06:09:10.852Z,101404.16
2023-03-29T06:11:39.295Z,101398.56
2023-03-29T06:14:07.688Z,101402.50
2023-03-29T06:16:36.427Z,101407.44
2023-03-29T06:19:05.339Z,101412.59
2023-03-29T06:21:33.075Z,101415.91
2023-03-29T06:24:01.224Z,101411.38
2023-03-29T06:26:30.636Z,101420.06
2023-03-29T06:28:58.508Z,101400.06
2023-03-29T06:31:26.544Z,101410.66
2023-03-29T06:33:54.361Z,101401.66
2023-03-29T06:36:22.390Z,101405.25
2023-03-29T06:38:50.170Z,101400.56
2023-03-29T06:41:17.962Z,101394.81
2023-03-29T06:43:47.038Z,101388.66
2023-03-29T06:46:15.037Z,101386.00
2023-03-29T06:48:42.904Z,101396.75
2023-03-29T06:51:10.674Z,101395.31
2023-03-29T06:53:38.515Z,101392.78
2023-03-29T06:56:09.381Z,101390.91
2023-03-29T06:58:37.971Z,101395.25
2023-03-29T07:01:07.744Z,101396.88
2023-03-29T07:03:36.364Z,101401.41
2023-03-29T07:06:09.958Z,101399.09
2023-03-29T07:08:43.578Z,101407.56
2023-03-29T07:11:13.619Z,101410.00
2023-03-29T07:13:42.395Z,101409.78
2023-03-29T07:16:12.841Z,101415.56
2023-03-29T07:18:41.602Z,101406.88
2023-03-29T07:21:10.593Z,101406.25
2023-03-29T07:23:38.988Z,101403.53
2023-03-29T07:26:08.136Z,101415.53
2023-03-29T07:28:37.536Z,101413.03
2023-03-29T07:31:06.772Z,101429.34
2023-03-29T07:33:35.979Z,101425.00
2023-03-29T07:36:04.882Z,101424.38
2023-03-29T07:38:32.971Z,101437.97
2023-03-29T07:41:04.073Z,101437.34
2023-03-29T07:43:32.120Z,101449.94
2023-03-29T07:46:02.081Z,101447.25
2023-03-29T07:48:30.289Z,101449.94
2023-03-29T07:50:59.441Z,101447.47
2023-03-29T07:53:29.752Z,101448.28
2023-03-29T07:55:57.716Z,101443.31
2023-03-29T07:58:25.576Z,101459.00
2023-03-29T08:00:53.431Z,101460.03
2023-03-29T08:03:21.746Z,101459.00
2023-03-29T08:05:49.564Z,101461.69
2023-03-29T08:08:18.698Z,101451.16
2023-03-29T08:10:46.402Z,101446.63
2023-03-29T08:13:14.225Z,101454.66
2023-03-29T08:15:46.352Z,101449.09
2023-03-29T08:18:14.247Z,101448.28
2023-03-29T08:20:42.599Z,101443.78
2023-03-29T08:23:10.765Z,101446.53
2023-03-29T08:25:39.889Z,101450.34
2023-03-29T08:28:07.927Z,101451.22
2023-03-29T08:30:36.170Z,101443.00
2023-03-29T08:33:04.014Z,101441.19
2023-03-29T08:35:32.280Z,101429.38
2023-03-29T08:38:02.154Z,101437.84
2023-03-29T08:40:31.415Z,101423.16
2023-03-29T08:43:33.517Z,101431.59
2023-03-29T08:46:12.884Z,101422.66
2023-03-29T08:48:45.236Z,101427.78
2023-03-29T08:51:21.534Z,101432.31
2023-03-29T08:53:53.514Z,101433.31
2023-03-29T08:56:26.210Z,101433.94
2023-03-29T08:58:57.709Z,101419.44
2023-03-29T09:01:29.754Z,101418.81
2023-03-29T09:04:07.050Z,101421.06
2023-03-29T09:06:34.849Z,101412.56
2023-03-29T09:09:02.683Z,101420.00
2023-03-29T09:11:49.585Z,101423.69
2023-03-29T09:14:40.259Z,101417.06
2023-03-29T09:17:17.914Z,101426.56
2023-03-29T09:19:56.118Z,101421.88
2023-03-29T09:22:31.894Z,101415.53
2023-03-29T09:25:12.382Z,101425.31
2023-03-29T09:27:47.423Z,101416.91
2023-03-29T09:30:25.901Z,101417.16
2023-03-29T09:32:55.364Z,101429.56
2023-03-29T09:35:25.110Z,101431.66
2023-03-29T09:37:55.009Z,101428.34
2023-03-29T09:40:27.338Z,101428.16
2023-03-29T09:42:56.787Z,101439.50
2023-03-29T09:45:25.941Z,101436.41
2023-03-29T09:47:58.083Z,101425.59
2023-03-29T09:50:32.341Z,101431.16
2023-03-29T09:53:00.660Z,101422.59
2023-03-29T09:55:31.084Z,101421.69
2023-03-29T09:58:01.933Z,101426.16
2023-03-29T10:00:31.114Z,101428.81
2023-03-29T10:03:00.271Z,101422.97
2023-03-29T10:05:37.851Z,101424.25
2023-03-29T10:08:19.836Z,101425.16
2023-03-29T10:10:48.472Z,101423.81
2023-03-29T10:13:24.106Z,101428.84
2023-03-29T10:16:07.547Z,101422.69
2023-03-29T10:18:41.613Z,101426.84
2023-03-29T10:21:14.463Z,101424.38
2023-03-29T10:23:43.860Z,101417.75
2023-03-29T10:26:22.917Z,101413.84
2023-03-29T10:28:53.943Z,101405.38
2023-03-29T10:31:24.407Z,101400.00
2023-03-29T10:33:54.936Z,101396.91
2023-03-29T10:36:24.429Z,101384.91
2023-03-29T10:38:54.190Z,101393.38
2023-03-29T10:41:24.081Z,101398.97
2023-03-29T10:43:52.522Z,101391.13
2023-03-29T10:46:24.249Z,101391.13
2023-03-29T10:48:57.439Z,101378.50
2023-03-29T10:51:27.728Z,101374.16
2023-03-29T10:53:55.472Z,101372.28
2023-03-29T10:56:37.141Z,101365.25
2023-03-29T10:59:23.142Z,101360.72
2023-03-29T11:02:06.683Z,101359.25
2023-03-29T11:04:44.015Z,101349.94
2023-03-29T11:07:27.197Z,101354.25
2023-03-29T11:10:03.347Z,101356.13
2023-03-29T11:12:40.120Z,101358.19
2023-03-29T11:15:34.422Z,101358.19
2023-03-29T11:18:26.250Z,101350.34
2023-03-29T11:20:59.249Z,101327.41
2023-03-29T11:23:40.365Z,101323.47
2023-03-29T11:26:16.659Z,101338.34
2023-03-29T11:28:53.068Z,101341.81
2023-03-29T11:31:32.685Z,101348.97
2023-03-29T11:34:15.712Z,101348.16
2023-03-29T11:36:52.751Z,101350.47
2023-03-29T11:39:31.483Z,101357.72
2023-03-29T11:42:09.313Z,101346.56
2023-03-29T11:44:38.480Z,101334.97
2023-03-29T11:47:12.009Z,101336.00
2023-03-29T11:49:45.560Z,101331.59
2023-03-29T11:52:19.323Z,101339.19
2023-03-29T11:54:51.913Z,101337.94
2023-03-29T11:57:24.694Z,101326.75
2023-03-29T12:00:00.402Z,101322.44
2023-03-29T12:02:34.591Z,101317.28
2023-03-29T12:05:12.852Z,101319.78
2023-03-29T12:07:48.408Z,101331.97
2023-03-29T12:10:20.531Z,101338.19
2023-03-29T12:12:56.366Z,101326.78
2023-03-29T12:15:26.331Z,101330.06
2023-03-29T12:18:03.522Z,101324.88
2023-03-29T12:20:37.870Z,101316.16
2023-03-29T12:23:07.003Z,101323.94
2023-03-29T12:25:42.220Z,101323.41
2023-03-29T12:28:26.242Z,101312.66
2023-03-29T12:31:02.520Z,101317.94
2023-03-29T12:33:53.035Z,101322.69
2023-03-29T12:36:52.691Z,101306.81
2023-03-29T12:39:22.958Z,101320.97
2023-03-29T12:41:53.411Z,101312.13
2023-03-29T12:44:24.214Z,101296.91
2023-03-29T12:46:54.743Z,101276.66
2023-03-29T12:49:29.287Z,101270.97
2023-03-29T12:52:00.783Z,101260.63
2023-03-29T12:54:31.860Z,101263.16
2023-03-29T12:57:02.671Z,101258.44
2023-03-29T12:59:39.379Z,101257.28
2023-03-29T13:02:27.169Z,101253.75
2023-03-29T13:04:56.808Z,101255.03
2023-03-29T13:07:46.339Z,101244.69
2023-03-29T13:10:38.991Z,101249.47
2023-03-29T13:13:16.560Z,101245.97
2023-03-29T13:15:45.710Z,101243.47
2023-03-29T13:18:32.226Z,101239.75
2023-03-29T13:21:05.772Z,101230.94
2023-03-29T13:23:45.881Z,101238.34
2023-03-29T13:26:30.031Z,101231.22
2023-03-29T13:29:22.528Z,101226.44
2023-03-29T13:31:57.358Z,101215.13
2023-03-29T13:34:36.623Z,101211.03
2023-03-29T13:37:12.977Z,101207.97
2023-03-29T13:39:50.704Z,101210.06
2023-03-29T13:42:21.652Z,101199.50
2023-03-29T13:44:49.925Z,101204.66
2023-03-29T13:47:38.154Z,101196.34
2023-03-29T13:50:12.849Z,101193.44
2023-03-29T13:52:45.723Z,101194.91
2023-03-29T13:55:20.994Z,101189.53
2023-03-29T13:57:54.301Z,101185.03
2023-03-29T14:00:26.515Z,101187.06
2023-03-29T14:02:58.565Z,101177.53
2023-03-29T14:05:31.516Z,101182.84
2023-03-29T14:08:10.723Z,101182.38
2023-03-29T14:10:42.544Z,101180.91
2023-03-29T14:13:13.637Z,101180.59
2023-03-29T14:15:50.745Z,101178.00
2023-03-29T14:18:22.247Z,101173.44
2023-03-29T14:20:53.640Z,101167.44
2023-03-29T14:23:24.683Z,101171.69
2023-03-29T14:25:54.018Z,101167.72
2023-03-29T14:28:23.861Z,101170.66
2023-03-29T14:30:52.818Z,101159.03
2023-03-29T14:33:28.255Z,101159.19
2023-03-29T14:35:56.941Z,101146.91
2023-03-29T14:38:27.051Z,101141.97
2023-03-29T14:41:00.602Z,101141.38
2023-03-29T14:43:32.041Z,101135.31
2023-03-29T14:46:03.499Z,101130.69
2023-03-29T14:48:33.202Z,101122.13
2023-03-29T14:51:01.720Z,101120.91
2023-03-29T14:53:32.301Z,101121.59
2023-03-29T14:56:02.428Z,101101.16
2023-03-29T14:58:33.512Z,101095.94
2023-03-29T15:01:05.887Z,101096.09
2023-03-29T15:03:44.092Z,101092.09
2023-03-29T15:06:14.271Z,101096.44
2023-03-29T15:08:51.129Z,101088.22
2023-03-29T15:11:27.213Z,101094.66
2023-03-29T15:14:05.258Z,101079.41
2023-03-29T15:16:34.023Z,101075.16
2023-03-29T15:19:03.128Z,101086.41
2023-03-29T15:21:34.477Z,101080.13
2023-03-29T15:24:04.238Z,101081.50
2023-03-29T15:26:35.153Z,101064.25
2023-03-29T15:29:08.533Z,101058.13
2023-03-29T15:31:38.973Z,101072.34
2023-03-29T15:34:09.513Z,101072.56
2023-03-29T15:36:42.450Z,101065.53
2023-03-29T15:39:12.998Z,101063.06
2023-03-29T15:41:42.313Z,101062.47
2023-03-29T15:44:10.802Z,101069.75
2023-03-29T15:46:38.600Z,101052.75
2023-03-29T15:49:06.350Z,101052.75
2023-03-29T15:51:34.191Z,101038.44
2023-03-29T15:54:02.050Z,101027.66
2023-03-29T15:56:30.029Z,101022.25
2023-03-29T15:58:59.166Z,101022.03
2023-03-29T16:01:34.695Z,101032.59
2023-03-29T16:04:03.264Z,101019.09
2023-03-29T16:06:31.257Z,101009.94
2023-03-29T16:08:59.182Z,101007.25
2023-03-29T16:11:28.438Z,101002.22
2023-03-29T16:13:56.483Z,101005.13
2023-03-29T16:16:27.102Z,100993.53
2023-03-29T16:18:54.906Z,100992.72
2023-03-29T16:21:24.387Z,100988.25
2023-03-29T16:23:52.374Z,100985.56
2023-03-29T16:26:20.117Z,100973.38
2023-03-29T16:28:47.820Z,100976.53
2023-03-29T16:31:15.795Z,100966.41
2023-03-29T16:33:44.969Z,100979.72
2023-03-29T16:36:13.206Z,100963.63
2023-03-29T16:38:41.596Z,100968.69
2023-03-29T16:41:14.925Z,100953.56
2023-03-29T16:43:42.755Z,100957.25
2023-03-29T16:46:11.687Z,100960.66
2023-03-29T16:48:40.021Z,100962.91
2023-03-29T16:51:10.848Z,100961.16
2023-03-29T16:53:38.700Z,100948.84
2023-03-29T16:56:07.867Z,100953.66
2023-03-29T16:58:36.199Z,100948.16
2023-03-29T17:01:09.940Z,100955.66
2023-03-29T17:03:37.986Z,100952.63
2023-03-29T17:06:06.932Z,100934.44
2023-03-29T17:08:36.690Z,100944.41
2023-03-29T17:11:06.309Z,100939.00
2023-03-29T17:13:34.411Z,100929.47
2023-03-29T17:16:02.728Z,100928.66
2023-03-29T17:18:30.870Z,100940.50
2023-03-29T17:21:00.020Z,100934.53
2023-03-29T17:23:27.800Z,100924.56
2023-03-29T17:25:56.941Z,100908.50
2023-03-29T17:28:25.055Z,100916.69
2023-03-29T17:30:53.203Z,100911.31
2023-03-29T17:33:22.426Z,100914.00
2023-03-29T17:35:50.627Z,100913.19
2023-03-29T17:38:19.379Z,100901.56
2023-03-29T17:40:53.177Z,100912.13
2023-03-29T17:43:22.469Z,100902.38
2023-03-29T17:45:51.993Z,100904.03
2023-03-29T17:48:19.936Z,100901.09
2023-03-29T17:50:47.833Z,100899.22
2023-03-29T17:53:15.705Z,100898.97
2023-03-29T17:55:43.515Z,100892.75
2023-03-29T17:58:11.740Z,100890.88
2023-03-29T18:00:41.022Z,100892.53
2023-03-29T18:03:08.913Z,100889.81
2023-03-29T18:05:36.977Z,100892.53
2023-03-29T18:08:05.155Z,100896.06
2023-03-29T18:10:32.980Z,100893.81
2023-03-29T18:13:01.044Z,100885.97
2023-03-29T18:15:28.865Z,100892.53
2023-03-29T18:17:58.296Z,100881.03
2023-03-29T18:20:26.227Z,100890.66
2023-03-29T18:22:54.036Z,100891.78
2023-03-29T18:25:22.133Z,100889.47
2023-03-29T18:27:50.080Z,100874.97
2023-03-29T18:30:17.968Z,100872.34
2023-03-29T18:32:45.913Z,100876.69
2023-03-29T18:35:15.129Z,100881.03
2023-03-29T18:37:42.891Z,100879.06
2023-03-29T18:40:11.058Z,100871.63
2023-03-29T18:42:38.855Z,100863.09
2023-03-29T18:45:07.459Z,100870.19
2023-03-29T18:47:35.278Z,100863.56
2023-03-29T18:50:03.414Z,100860.19
2023-03-29T18:52:32.564Z,100860.34
2023-03-29T18:55:00.313Z,100857.13
2023-03-29T18:57:28.169Z,100861.81
2023-03-29T18:59:55.993Z,100857.94
2023-03-29T19:02:23.902Z,100863.00
2023-03-29T19:04:51.835Z,100863.50
2023-03-29T19:07:20.623Z,100856.69
2023-03-29T19:09:49.821Z,100860.44
2023-03-29T19:12:17.571Z,100858.00
2023-03-29T19:14:45.398Z,100854.72
2023-03-29T19:17:13.215Z,100854.13
2023-03-29T19:19:41.173Z,100857.06
2023-03-29T19:22:09.026Z,100861.66
2023-03-29T19:24:36.831Z,100846.50
2023-03-29T19:27:06.469Z,100842.16
2023-03-29T19:29:34.289Z,100844.06
2023-03-29T19:32:02.117Z,100831.63
2023-03-29T19:34:30.535Z,100825.41
2023-03-29T19:37:00.247Z,100821.06
2023-03-29T19:39:29.751Z,100818.34
2023-03-29T19:41:57.664Z,100813.19
2023-03-29T19:44:28.132Z,100806.16
2023-03-29T19:46:55.889Z,100805.34
2023-03-29T19:49:23.731Z,100799.94
2023-03-29T19:51:54.438Z,100807.47
2023-03-29T19:54:23.484Z,100784.59
2023-03-29T19:56:52.694Z,100792.56
2023-03-29T19:59:20.719Z,100777.91
2023-03-29T20:01:51.813Z,100783.66
2023-03-29T20:04:20.024Z,100782.84
2023-03-29T20:06:47.834Z,100764.53
2023-03-29T20:09:16.179Z,100774.97
2023-03-29T20:11:44.647Z,100747.91
2023-03-29T20:14:12.610Z,100773.56
2023-03-29T20:16:41.724Z,100767.38
2023-03-29T20:19:14.107Z,100723.88
2023-03-29T20:21:42.005Z,100737.88
2023-03-29T20:24:09.890Z,100739.78
2023-03-29T20:26:37.837Z,100744.34
2023-03-29T20:29:06.206Z,100744.34
2023-03-29T20:31:34.015Z,100742.72
2023-03-29T20:34:01.839Z,100732.97
2023-03-29T20:36:31.725Z,100720.31
2023-03-29T20:39:00.261Z,100712.44
2023-03-29T20:41:28.070Z,100707.28
2023-03-29T20:43:59.716Z,100702.72
2023-03-29T20:46:33.286Z,100707.28
2023-03-29T20:49:01.545Z,100704.59
2023-03-29T20:51:32.061Z,100700.25
2023-03-29T20:54:04.560Z,100681.63
2023-03-29T20:56:34.312Z,100678.91
2023-03-29T20:59:03.947Z,100687.84
2023-03-29T21:01:31.813Z,100681.28
2023-03-29T21:03:59.901Z,100681.84
2023-03-29T21:06:28.021Z,100681.03
2023-03-29T21:08:57.487Z,100683.50
2023-03-29T21:11:25.649Z,100688.06
2023-03-29T21:13:53.907Z,100689.94
2023-03-29T21:16:21.739Z,100680.78
2023-03-29T21:18:49.521Z,100664.84
2023-03-29T21:21:17.410Z,100671.88
2023-03-29T21:23:45.223Z,100688.06
2023-03-29T21:26:16.462Z,100681.84
2023-03-29T21:28:44.271Z,100666.72
2023-03-29T21:31:12.067Z,100666.72
2023-03-29T21:33:39.886Z,100673.19
2023-03-29T21:36:08.253Z,100671.31
2023-03-29T21:38:36.148Z,100666.16
2023-03-29T21:41:04.065Z,100659.94
2023-03-29T21:43:33.381Z,100652.91
2023-03-29T21:46:01.279Z,100646.69
2023-03-29T21:48:29.057Z,100640.47
2023-03-29T21:50:56.789Z,100645.06
2023-03-29T21:53:24.643Z,100638.84
2023-03-29T21:55:52.753Z,100631.81
2023-03-29T21:58:20.864Z,100641.78
2023-03-29T22:00:50.004Z,100626.66
2023-03-29T22:03:18.053Z,100628.53
2023-03-29T22:05:57.163Z,100633.13
2023-03-29T22:08:26.252Z,100627.97
2023-03-29T22:10:56.999Z,100632.53
2023-03-29T22:13:26.157Z,100622.81
2023-03-29T22:15:59.627Z,100627.38
2023-03-29T22:18:28.053Z,100614.97
2023-03-29T22:20:55.914Z,100617.66
2023-03-29T22:23:24.850Z,100616.84
2023-03-29T22:25:52.677Z,100618.72
2023-03-29T22:28:20.474Z,100618.16
2023-03-29T22:30:48.223Z,100618.97
2023-03-29T22:33:17.359Z,100618.16
2023-03-29T22:35:45.134Z,100613.81
2023-03-29T22:38:12.907Z,100612.16
2023-03-29T22:40:41.169Z,100602.44
2023-03-29T22:43:08.853Z,100602.69
2023-03-29T22:45:37.068Z,100605.38
2023-03-29T22:48:05.104Z,100619.69
2023-03-29T22:50:34.232Z,100610.78
2023-03-29T22:53:01.955Z,100600.72
2023-03-29T22:55:29.781Z,100609.16
2023-03-29T22:57:57.500Z,100601.06
2023-03-29T23:00:25.224Z,100598.34
2023-03-29T23:02:53.092Z,100602.94
2023-03-29T23:05:21.096Z,100596.72
2023-03-29T23:07:50.544Z,100597.78
2023-03-29T23:10:18.473Z,100600.47
2023-03-29T23:12:46.702Z,100595.09
2023-03-29T23:15:14.560Z,100596.16
2023-03-29T23:17:42.312Z,100584.53
2023-03-29T23:20:11.386Z,100589.94
2023-03-29T23:22:39.726Z,100583.72
2023-03-29T23:25:09.751Z,100585.59
2023-03-29T23:27:37.602Z,100582.91
2023-03-29T23:30:07.519Z,100579.63
2023-03-29T23:32:35.319Z,100585.03
2023-03-29T23:35:04.474Z,100583.38
2023-03-29T23:37:32.185Z,100576.34
2023-03-29T23:39:59.926Z,100577.19
2023-03-29T23:42:30.811Z,100572.84
2023-03-29T23:44:58.546Z,100577.41
2023-03-29T23:47:27.804Z,100568.50
2023-03-29T23:49:55.765Z,100580.34
2023-03-29T23:52:23.515Z,100581.19
2023-03-29T23:54:51.516Z,100579.53
2023-03-29T23:57:19.462Z,100577.66
2023-03-29T23:59:52.790Z,100562.69
